Peijaksen Hospital Heliport

EFPE · 新地区, 芬兰

罗盘
风向 的 风向 090° 直升机
风: 6 kt, 2 beaufort
0 ft 1.000 2.000 3.000 4.000 5.000
CAVOK
METAR EFHK 241650Z 09006KT CAVOK 04/M01 Q1013 NOSIG

METAR Peijaksen Hospital Heliport - EFPE

Peijaksen Hospital Heliport是,芬兰中的直升机场。 该机场位于纬度60,33111和经度25,06083。 本场的ICAO机场代码为EFPE。 机场在Finland FIR中。

该航空气象观测是针对Helsinki Vantaa Airport在2024年4月24日 19:50, 当地时间进行的。

机场观察

风向为090°,速度为6 kt。

天气为CAVOK。这意味着在5.000 ft或MSA(最低安全高度)以下(以较高者为准)以下没有云。这也意味着没有观测到积雨云或高耸的积云,可见度为10 km 或者更多或更高。此外,不会有雾,降雨或其他重要天气。

温度为4 °C,阵风为-1 °C。 露点为-1 °C,相对湿度为70%。 海平面上的气压为1013 hPa (QNH)。

白天

今天,太阳从05:33升起,在21:01降落。 这适用于Peijaksen Hospital Heliport,世界夏令时可能有所不同。 当地时间与世界标准时间之间的时差为+3 小时。 夏令时目前正在进行中。

公司介绍

我们没有关于这个机场的公司信息。

体会

到Vliegles.nl去找飞行课程,跳伞和其他飞行体验。 浏览页面,了解Peijaksen Hospital Heliport附近所有可用的活动。 你也可以使用搜索功能来寻找你所在地附近的特定飞行课程、跳伞或其他飞行体验。

温度 & 天气

温度 4 °C
露点 -1 °C
相对湿度 70%
风寒 -1 °C
Kp-index 0 (0-9)

白天

日出
05:34
中午
13:18
日落
21:02 (54m)

小工具

你想在你的网站上有一个关于Peijaksen Hospital Heliport的当前航空天气(METAR)的小部件吗?

显示HTML代码
报告变更